EBBR/BRU METAR and TAF weather

Enter ICAO airport designator
Station Type Date Time Source
EBBR METAR 2021/09/23 17:20 UTC NOAA

EBBR 231720Z 28007KT 9999 BKN028 18/13 Q1018 NOSIG


Station Type Date Time Source
EBBR Decoded METAR 2021/09/23 17:20 UTC NOAA

Bruxelles National, Belgium (EBBR) 50-54N 004-32E 58M
Sep 23, 2021 - 01:20 PM EDT / 2021.09.23 1720 UTC
Wind: from the W (280 degrees) at 8 MPH (7 KT):0
Visibility: greater than 7 mile(s):0
Sky conditions: mostly cloudy
Temperature: 64 F (18 C)
Dew Point: 55 F (13 C)
Relative Humidity: 72%
Pressure (altimeter): 30.06 in. Hg (1018 hPa)
ob: EBBR 231720Z 28007KT 9999 BKN028 18/13 Q1018 NOSIG
cycle: 17

Station Type Date Time Source
EBBR TAF 2021/09/23 18:27 UTC NOAA

TAF TAF EBBR 231710Z 2318/2424 25007KT 9999 BKN035 PROB40
TEMPO 2323/2409 BKN008 BKN035

Example: see airport list